Aeroporto :
LOGIN :

Iscrizione | Disclaimer

   EN    FR    IT 

 










Sommario :    VFR   VFR Marginale   IFR   IFR Intensivo   IFR Molto Intensivo
Visibilità : 
Base nubi : 
>= 8 km
>= 3000ft
5 / 8 km
1000 / 3000 ft
1500m / 5 km
500 / 1000 ft
800 / 1500m
200 / 500 ft
< 800m
< 200 ft
Simboli :   Temporali  Nebbia  Neve Forte  Precipitazioni Forti  Vento > 20 kt
SIGMETs :   Varie  Temporali  Ghiacco  Turbolenza  Onda orograficha  Ceneri Vulcaniche






- Altitudine del aeroporto : 74 ft
- Codice IATA : NDZ


ETMN - Cuxhaven Nordholz Sea AB

ULTIMO METAR :
  • 140650Z 15006KT 1500 R08/5000N MIFG BR FEW026 02/01 Q1004 AMB YLO TEMPO RED

METARs OBSOLETI :
  • 140620Z 14005KT 0050 FG FEW026 02/01 Q1003 RED YLO TEMPO RED
  • 140546Z 15006KT 0050 FG FEW001 02/02 Q1003 RED YLO TEMPO RED
  • 140538Z 15006KT 0800 FG FEW001 02/02 Q1003 AMB YLO TEMPO RED
  • 140520Z 18005KT 2500 BR FEW010 02/02 Q1003 YLO YLO TEMPO RED
  • 140439Z 16006KT 2500 BR SCT001 SCT035 02/02 Q1002 YLO
  • 140420Z 16006KT 0800 FG VV000 02/02 Q1002 RED
  • 140402Z 16006KT 0600 FG BKN001 02/02 Q1002 RED

TAF TAF ETMN
Valido dal 14 a 06 ore il 14 a 15 ore UTC


140521Z 1406/1415 16008KT 3000 BR SCT001 SCT030
TEMPO 1406/1408 16005KT 0500 FG BKN001
BECMG 1407/1409 15008KT 8000 NSW FEW015 SCT030



MetMap, La meteo Aeronautica in un colpo d'occhio ! - Copyright ORBIFLY Dicembre 2007 - Disclaimer

ORBIFLY MET'MAP TEAM :

Programmazione e sviluppo : Alexandra Zaïnal
Concezione e sviluppo : Baudouin d'Aumeries
Co-Programmazione e sviluppo : Marc-Olivier Méhu
Supporto tecnico e logistico : Manuel Goepfert
Aiuto per la traduzione : Arnaldo La Scala

Contatto : metmap@orbifly.com




FONTI E CREDITI :

   NOAA